createdAt,value
2022-08-04T00:00:31.211Z,40.66
2022-08-04T00:01:05.843Z,40.64
2022-08-04T00:01:44.373Z,40.82
2022-08-04T00:02:22.242Z,40.57
2022-08-04T00:03:02.736Z,40.62
2022-08-04T00:03:45.975Z,40.70
2022-08-04T00:04:25.614Z,40.74
2022-08-04T00:05:01.834Z,40.65
2022-08-04T00:05:48.476Z,40.65
2022-08-04T00:06:29.342Z,40.59
2022-08-04T00:07:10.811Z,40.88
2022-08-04T00:07:51.522Z,40.71
2022-08-04T00:08:38.063Z,40.73
2022-08-04T00:09:14.606Z,41.02
2022-08-04T00:09:50.630Z,40.67
2022-08-04T00:10:26.140Z,40.66
2022-08-04T00:11:00.559Z,40.54
2022-08-04T00:11:34.089Z,40.70
2022-08-04T00:12:10.482Z,40.68
2022-08-04T00:12:45.542Z,40.57
2022-08-04T00:13:24.377Z,40.69
2022-08-04T00:14:03.931Z,40.52
2022-08-04T00:14:38.867Z,40.48
2022-08-04T00:15:15.069Z,40.47
2022-08-04T00:15:55.206Z,40.38
2022-08-04T00:16:32.729Z,40.64
2022-08-04T00:17:07.618Z,40.53
2022-08-04T00:17:44.733Z,40.56
2022-08-04T00:18:19.318Z,40.27
2022-08-04T00:18:56.530Z,40.57
2022-08-04T00:19:34.891Z,40.54
2022-08-04T00:20:09.911Z,40.60
2022-08-04T00:20:42.787Z,40.48
2022-08-04T00:21:18.698Z,40.50
2022-08-04T00:21:54.175Z,40.34
2022-08-04T00:22:31.120Z,40.41
2022-08-04T00:23:03.640Z,40.78
2022-08-04T00:24:11.136Z,40.21
2022-08-04T00:24:33.364Z,40.53
2022-08-04T00:25:06.758Z,40.66
2022-08-04T00:25:40.743Z,40.47
2022-08-04T00:26:15.734Z,40.40
2022-08-04T00:26:48.581Z,40.38
2022-08-04T00:27:21.092Z,40.44
2022-08-04T00:27:56.380Z,40.57
2022-08-04T00:28:31.447Z,40.40
2022-08-04T00:29:03.910Z,40.58
2022-08-04T00:29:38.986Z,40.39
2022-08-04T00:30:11.702Z,40.39
2022-08-04T00:30:44.164Z,40.43
2022-08-04T00:31:19.895Z,40.46
2022-08-04T00:32:13.242Z,40.59
2022-08-04T00:32:48.596Z,40.69
2022-08-04T00:33:21.391Z,40.50
2022-08-04T00:33:54.014Z,40.67
2022-08-04T00:34:30.796Z,40.64
2022-08-04T00:35:03.894Z,40.42
2022-08-04T00:35:36.887Z,40.54
2022-08-04T00:36:12.434Z,40.62
2022-08-04T00:36:45.036Z,40.85
2022-08-04T00:37:17.898Z,40.56
2022-08-04T00:37:52.937Z,40.63
2022-08-04T00:38:25.955Z,40.40
2022-08-04T00:38:59.296Z,40.57
2022-08-04T00:39:35.249Z,40.79
2022-08-04T00:40:17.063Z,40.62
2022-08-04T00:41:04.172Z,40.77
2022-08-04T00:41:55.498Z,40.71
2022-08-04T00:42:58.425Z,40.51
2022-08-04T00:43:38.476Z,40.56
2022-08-04T00:44:23.729Z,40.71
2022-08-04T00:45:08.175Z,40.79
2022-08-04T00:46:17.017Z,40.61
2022-08-04T00:47:05.227Z,40.63
2022-08-04T00:47:59.256Z,40.62
2022-08-04T00:48:42.393Z,40.71
2022-08-04T00:49:33.669Z,40.73
2022-08-04T00:50:11.863Z,40.66
2022-08-04T00:50:46.394Z,40.53
2022-08-04T00:51:32.027Z,40.86
2022-08-04T00:52:31.715Z,40.54
2022-08-04T00:53:09.617Z,40.36
2022-08-04T00:53:58.526Z,40.66
2022-08-04T00:54:46.979Z,40.42
2022-08-04T00:55:32.472Z,40.37
2022-08-04T00:56:35.388Z,40.58
2022-08-04T00:57:29.962Z,40.31
2022-08-04T00:58:36.443Z,40.78
2022-08-04T00:59:24.715Z,40.49
2022-08-04T01:00:08.607Z,40.62
2022-08-04T01:00:45.941Z,40.50
2022-08-04T01:01:41.115Z,40.71
2022-08-04T01:02:32.514Z,40.30
2022-08-04T01:03:10.914Z,40.76
2022-08-04T01:03:51.034Z,40.47
2022-08-04T01:04:32.862Z,40.27
2022-08-04T01:05:07.095Z,40.57
2022-08-04T01:05:48.686Z,40.60
2022-08-04T01:06:32.788Z,40.58
2022-08-04T01:07:17.506Z,40.31
2022-08-04T01:08:01.843Z,40.54
2022-08-04T01:08:53.320Z,40.59
2022-08-04T01:09:31.759Z,40.50
2022-08-04T01:10:08.006Z,40.85
2022-08-04T01:10:51.668Z,40.54
2022-08-04T01:11:32.656Z,40.36
2022-08-04T01:13:00.255Z,40.50
2022-08-04T01:13:47.098Z,40.21
2022-08-04T01:14:32.983Z,40.36
2022-08-04T01:15:08.106Z,40.76
2022-08-04T01:16:00.115Z,40.71
2022-08-04T01:16:35.947Z,40.50
2022-08-04T01:17:21.653Z,40.44
2022-08-04T01:18:05.562Z,40.52
2022-08-04T01:18:46.967Z,40.72
2022-08-04T01:19:37.709Z,40.66
2022-08-04T01:20:11.672Z,40.44
2022-08-04T01:20:54.120Z,40.42
2022-08-04T01:22:04.528Z,40.47
2022-08-04T01:23:09.379Z,40.38
2022-08-04T01:23:53.991Z,40.47
2022-08-04T01:24:44.811Z,40.48
2022-08-04T01:25:34.087Z,40.50
2022-08-04T01:26:57.856Z,40.47
2022-08-04T01:27:47.830Z,40.51
2022-08-04T01:28:30.175Z,40.46
2022-08-04T01:29:15.028Z,40.38
2022-08-04T01:29:51.071Z,40.40
2022-08-04T01:30:28.215Z,40.55
2022-08-04T01:31:12.932Z,40.44
2022-08-04T01:31:55.460Z,40.42
2022-08-04T01:32:35.393Z,40.66
2022-08-04T01:33:10.024Z,40.53
2022-08-04T01:34:02.974Z,40.04
2022-08-04T01:34:48.975Z,40.37
2022-08-04T01:35:46.636Z,40.26
2022-08-04T01:36:21.197Z,40.35
2022-08-04T01:36:59.869Z,40.13
2022-08-04T01:37:44.626Z,40.38
2022-08-04T01:38:22.492Z,40.26
2022-08-04T01:38:55.271Z,40.29
2022-08-04T01:39:42.907Z,40.38
2022-08-04T01:40:19.364Z,40.46
2022-08-04T01:40:54.007Z,40.35
2022-08-04T01:41:32.860Z,40.28
2022-08-04T01:42:09.696Z,40.33
2022-08-04T01:42:43.637Z,40.50
2022-08-04T01:43:19.507Z,40.21
2022-08-04T01:43:54.470Z,40.51
2022-08-04T01:44:31.906Z,40.36
2022-08-04T01:45:09.608Z,40.40
2022-08-04T01:45:42.172Z,40.37
2022-08-04T01:46:16.909Z,40.23
2022-08-04T01:46:50.692Z,40.45
2022-08-04T01:47:25.930Z,40.34
2022-08-04T01:47:58.750Z,40.64
2022-08-04T01:48:31.460Z,40.03
2022-08-04T01:49:06.987Z,40.35
2022-08-04T01:49:41.080Z,40.35
2022-08-04T01:50:14.439Z,40.40
2022-08-04T01:50:53.014Z,40.32
2022-08-04T01:51:25.971Z,40.52
2022-08-04T01:51:58.730Z,40.45
2022-08-04T01:52:35.392Z,40.12
2022-08-04T01:53:08.035Z,40.44
2022-08-04T01:53:42.056Z,40.65
2022-08-04T01:54:16.459Z,40.47
2022-08-04T01:54:53.900Z,40.29
2022-08-04T01:55:55.275Z,40.25
2022-08-04T01:56:24.562Z,40.28
2022-08-04T01:56:58.574Z,40.09
2022-08-04T01:57:37.882Z,40.09
2022-08-04T01:58:14.419Z,40.33
2022-08-04T01:58:46.944Z,40.28
2022-08-04T01:59:21.058Z,40.40
2022-08-04T02:00:01.366Z,40.24
2022-08-04T02:00:38.322Z,40.25
2022-08-04T02:01:14.866Z,40.23
2022-08-04T02:01:47.649Z,40.21
2022-08-04T02:02:23.034Z,40.28
2022-08-04T02:02:59.177Z,40.34
2022-08-04T02:04:22.029Z,40.43
2022-08-04T02:04:24.664Z,40.07
2022-08-04T02:04:59.700Z,40.07
2022-08-04T02:06:03.991Z,40.30
2022-08-04T02:06:32.129Z,40.08
2022-08-04T02:07:19.931Z,40.37
2022-08-04T02:08:04.578Z,40.42
2022-08-04T02:08:47.657Z,40.16
2022-08-04T02:09:24.594Z,39.95
2022-08-04T02:10:05.066Z,40.17
2022-08-04T02:10:53.401Z,40.40
2022-08-04T02:11:25.732Z,40.21
2022-08-04T02:12:04.312Z,39.84
2022-08-04T02:12:56.740Z,40.30
2022-08-04T02:13:35.556Z,40.04
2022-08-04T02:14:37.964Z,40.06
2022-08-04T02:15:16.394Z,40.16
2022-08-04T02:15:59.058Z,40.42
2022-08-04T02:16:39.003Z,40.21
2022-08-04T02:17:12.932Z,40.16
2022-08-04T02:17:55.172Z,40.24
2022-08-04T02:18:32.565Z,40.42
2022-08-04T02:19:17.623Z,40.15
2022-08-04T02:20:16.398Z,40.10
2022-08-04T02:20:52.555Z,40.27
2022-08-04T02:21:26.450Z,40.11
2022-08-04T02:22:06.859Z,39.87
2022-08-04T02:22:45.970Z,40.21
2022-08-04T02:23:25.698Z,40.16
2022-08-04T02:24:02.359Z,39.96
2022-08-04T02:24:43.615Z,39.72
2022-08-04T02:25:19.930Z,39.99
2022-08-04T02:26:00.065Z,40.23
2022-08-04T02:26:34.536Z,39.94
2022-08-04T02:27:07.441Z,40.08
2022-08-04T02:27:59.090Z,39.89
2022-08-04T02:28:40.582Z,39.91
2022-08-04T02:29:20.324Z,40.08
2022-08-04T02:29:57.398Z,39.89
2022-08-04T02:30:37.614Z,39.66
2022-08-04T02:31:20.056Z,39.60
2022-08-04T02:31:57.952Z,39.57
2022-08-04T02:32:31.422Z,39.73
2022-08-04T02:33:07.638Z,39.87
2022-08-04T02:33:43.323Z,39.65
2022-08-04T02:34:22.492Z,39.95
2022-08-04T02:35:01.402Z,39.53
2022-08-04T02:35:36.971Z,39.83
2022-08-04T02:36:14.210Z,39.82
2022-08-04T02:36:48.884Z,40.08
2022-08-04T02:37:22.277Z,39.82
2022-08-04T02:38:04.611Z,39.87
2022-08-04T02:38:55.206Z,40.07
2022-08-04T02:39:48.515Z,39.86
2022-08-04T02:40:22.283Z,40.03
2022-08-04T02:40:56.427Z,39.73
2022-08-04T02:41:35.397Z,39.52
2022-08-04T02:42:07.921Z,39.82
2022-08-04T02:42:42.674Z,39.89
2022-08-04T02:43:18.646Z,39.87
2022-08-04T02:44:11.219Z,39.53
2022-08-04T02:44:46.723Z,39.69
2022-08-04T02:45:20.033Z,40.06
2022-08-04T02:45:56.862Z,40.16
2022-08-04T02:46:32.766Z,39.71
2022-08-04T02:47:06.211Z,39.79
2022-08-04T02:48:08.171Z,40.00
2022-08-04T02:48:35.682Z,39.84
2022-08-04T02:49:09.665Z,39.82
2022-08-04T02:49:45.581Z,40.03
2022-08-04T02:50:28.553Z,39.83
2022-08-04T02:51:01.790Z,39.78
2022-08-04T02:51:44.594Z,39.89
2022-08-04T02:52:17.266Z,39.84
2022-08-04T02:52:50.947Z,39.85
2022-08-04T02:53:26.214Z,39.82
2022-08-04T02:54:00.198Z,40.02
2022-08-04T02:54:34.736Z,39.94
2022-08-04T02:55:10.701Z,39.50
2022-08-04T02:55:51.046Z,39.90
2022-08-04T02:56:31.172Z,39.79
2022-08-04T02:57:08.219Z,39.64
2022-08-04T02:57:41.250Z,39.88
2022-08-04T02:58:15.743Z,39.57
2022-08-04T02:58:55.266Z,39.80
2022-08-04T02:59:29.897Z,39.87
2022-08-04T03:00:11.891Z,39.62
2022-08-04T03:00:49.583Z,39.48
2022-08-04T03:01:25.431Z,39.74
2022-08-04T03:02:01.669Z,39.85
2022-08-04T03:02:42.843Z,39.45
2022-08-04T03:03:22.858Z,39.63
2022-08-04T03:04:26.294Z,39.62
2022-08-04T03:05:04.312Z,39.76
2022-08-04T03:05:51.884Z,39.87
2022-08-04T03:06:57.239Z,39.70
2022-08-04T03:08:04.400Z,40.06
2022-08-04T03:09:18.487Z,39.46
2022-08-04T03:10:30.440Z,39.97
2022-08-04T03:11:41.672Z,39.60
2022-08-04T03:12:33.227Z,39.82
2022-08-04T03:13:31.562Z,39.84
2022-08-04T03:14:25.583Z,39.82
2022-08-04T03:15:27.847Z,39.96
2022-08-04T03:16:31.876Z,39.79
2022-08-04T03:17:52.614Z,39.75
2022-08-04T03:19:00.053Z,39.78
2022-08-04T03:20:00.536Z,39.80
2022-08-04T03:20:59.772Z,39.99
2022-08-04T03:21:57.064Z,39.70
2022-08-04T03:23:14.174Z,39.75
2022-08-04T03:24:12.919Z,39.94
2022-08-04T03:25:28.262Z,39.66
2022-08-04T03:26:23.814Z,39.88
2022-08-04T03:27:15.431Z,39.84
2022-08-04T03:28:07.486Z,40.11
2022-08-04T03:29:00.750Z,39.86
2022-08-04T03:30:06.835Z,39.76
2022-08-04T03:30:58.579Z,39.87
2022-08-04T03:31:54.617Z,40.06
2022-08-04T03:32:59.410Z,39.92
2022-08-04T03:33:48.587Z,39.89
2022-08-04T03:34:41.169Z,39.71
2022-08-04T03:35:58.360Z,39.70
2022-08-04T03:36:56.677Z,39.86
2022-08-04T03:37:44.975Z,39.86
2022-08-04T03:38:42.695Z,40.01
2022-08-04T03:39:54.504Z,40.28
2022-08-04T03:40:56.463Z,40.33
2022-08-04T03:41:51.774Z,39.99
2022-08-04T03:43:05.579Z,40.07
2022-08-04T03:43:58.278Z,40.01
2022-08-04T03:45:04.990Z,39.96
2022-08-04T03:46:34.875Z,40.32
2022-08-04T03:47:31.742Z,40.05
2022-08-04T03:48:28.724Z,39.92
2022-08-04T03:49:44.110Z,40.33
2022-08-04T03:50:41.669Z,39.89
2022-08-04T03:51:36.270Z,39.94
2022-08-04T03:52:29.343Z,39.75
2022-08-04T03:53:24.659Z,39.90
2022-08-04T03:54:16.431Z,39.88
2022-08-04T03:55:20.818Z,39.85
2022-08-04T03:56:34.503Z,39.66
2022-08-04T03:57:28.430Z,39.92
2022-08-04T03:58:49.211Z,39.97
2022-08-04T03:59:59.603Z,39.98
2022-08-04T04:00:42.600Z,39.92
2022-08-04T04:02:01.484Z,39.79
2022-08-04T04:02:58.299Z,39.80
2022-08-04T04:03:59.975Z,39.98
2022-08-04T04:04:56.454Z,39.70
2022-08-04T04:06:02.187Z,39.55
2022-08-04T04:07:17.560Z,39.70
2022-08-04T04:08:22.175Z,39.76
2022-08-04T04:09:24.170Z,39.53
2022-08-04T04:10:17.242Z,40.00
2022-08-04T04:11:27.422Z,39.68
2022-08-04T04:12:25.367Z,39.53
2022-08-04T04:13:18.539Z,39.69
2022-08-04T04:14:00.035Z,39.77
2022-08-04T04:14:58.421Z,39.72
2022-08-04T04:15:50.195Z,39.60
2022-08-04T04:16:39.450Z,39.65
2022-08-04T04:17:31.962Z,39.60
2022-08-04T04:18:42.531Z,39.65
2022-08-04T04:19:31.537Z,39.38
2022-08-04T04:20:35.946Z,39.56
2022-08-04T04:21:22.533Z,39.53
2022-08-04T04:22:30.070Z,39.43
2022-08-04T04:23:14.042Z,39.41
2022-08-04T04:24:04.703Z,39.38
2022-08-04T04:24:59.895Z,39.56
2022-08-04T04:25:41.707Z,39.66
2022-08-04T04:26:33.251Z,39.50
2022-08-04T04:27:14.728Z,39.62
2022-08-04T04:28:43.647Z,39.54
2022-08-04T04:29:09.587Z,39.31
2022-08-04T04:30:06.845Z,39.52
2022-08-04T04:30:50.003Z,39.75
2022-08-04T04:31:34.620Z,39.50
2022-08-04T04:32:22.987Z,39.63
2022-08-04T04:33:21.347Z,39.48
2022-08-04T04:34:02.517Z,39.51
2022-08-04T04:34:49.933Z,39.69
2022-08-04T04:35:34.368Z,39.65
2022-08-04T04:36:15.512Z,39.64
2022-08-04T04:37:04.354Z,39.79
2022-08-04T04:38:00.598Z,39.43
2022-08-04T04:38:45.940Z,39.71
2022-08-04T04:39:31.155Z,39.39
2022-08-04T04:40:18.577Z,39.57
2022-08-04T04:41:05.987Z,39.85
2022-08-04T04:42:05.479Z,39.63
2022-08-04T04:43:01.656Z,39.76
2022-08-04T04:43:54.638Z,39.70
2022-08-04T04:44:56.922Z,39.60
2022-08-04T04:45:32.161Z,39.93
2022-08-04T04:46:11.081Z,39.75
2022-08-04T04:46:54.515Z,39.98
2022-08-04T04:47:43.056Z,39.77
2022-08-04T04:48:36.851Z,40.05
2022-08-04T04:49:20.828Z,39.81
2022-08-04T04:49:59.918Z,40.21
2022-08-04T04:50:44.134Z,40.24
2022-08-04T04:51:21.043Z,40.58
2022-08-04T04:52:04.069Z,39.99
2022-08-04T04:52:41.039Z,40.52
2022-08-04T04:53:20.811Z,40.11
2022-08-04T04:54:00.851Z,40.25
2022-08-04T04:54:35.507Z,40.28
2022-08-04T04:55:14.711Z,40.34
2022-08-04T04:56:02.774Z,40.59
2022-08-04T04:56:41.567Z,40.31
2022-08-04T04:57:17.784Z,40.62
2022-08-04T04:57:55.377Z,40.48
2022-08-04T04:58:29.698Z,40.48
2022-08-04T04:59:03.517Z,40.38
2022-08-04T04:59:42.421Z,40.09
2022-08-04T05:00:15.801Z,40.08
2022-08-04T05:01:11.389Z,40.09
2022-08-04T05:02:07.799Z,40.17
2022-08-04T05:03:15.364Z,39.98
2022-08-04T05:04:09.576Z,40.20
2022-08-04T05:05:04.674Z,39.89
2022-08-04T05:06:07.668Z,39.85
2022-08-04T05:06:54.854Z,39.74
2022-08-04T05:07:53.229Z,39.60
2022-08-04T05:08:46.855Z,39.59
2022-08-04T05:09:32.781Z,39.58
2022-08-04T05:10:17.518Z,39.78
2022-08-04T05:11:08.311Z,39.75
2022-08-04T05:11:55.283Z,39.37
2022-08-04T05:14:31.786Z,39.41
2022-08-04T05:14:38.963Z,39.31
2022-08-04T05:14:46.972Z,39.05
2022-08-04T05:15:25.619Z,39.26
2022-08-04T05:16:02.012Z,39.41
2022-08-04T05:16:40.420Z,39.26
2022-08-04T05:17:17.808Z,39.11
2022-08-04T05:17:55.788Z,39.21
2022-08-04T05:18:31.418Z,38.82
2022-08-04T05:19:18.445Z,39.24
2022-08-04T05:20:02.117Z,39.12
2022-08-04T05:20:38.802Z,38.97
2022-08-04T05:21:21.890Z,39.09
2022-08-04T05:22:04.714Z,39.09
2022-08-04T05:22:40.019Z,39.06
2022-08-04T05:23:16.811Z,39.20
2022-08-04T05:23:54.113Z,39.33
2022-08-04T05:24:28.394Z,39.36
2022-08-04T05:25:08.027Z,39.26
2022-08-04T05:25:58.595Z,39.37
2022-08-04T05:26:35.646Z,39.22
2022-08-04T05:27:20.821Z,38.98
2022-08-04T05:28:01.045Z,39.25
2022-08-04T05:28:39.607Z,39.21
2022-08-04T05:29:17.342Z,38.82
2022-08-04T05:29:53.771Z,39.23
2022-08-04T05:30:31.392Z,38.97
2022-08-04T05:31:07.282Z,39.27
2022-08-04T05:31:42.052Z,38.90
2022-08-04T05:32:18.302Z,39.17
2022-08-04T05:32:59.223Z,39.14
2022-08-04T05:33:37.862Z,39.20
2022-08-04T05:34:14.778Z,39.07
2022-08-04T05:34:55.623Z,39.15
2022-08-04T05:35:37.416Z,39.07
2022-08-04T05:36:41.296Z,39.25
2022-08-04T05:37:18.170Z,39.14
2022-08-04T05:38:01.350Z,38.80
2022-08-04T05:38:36.672Z,39.18
2022-08-04T05:39:16.114Z,38.93
2022-08-04T05:39:53.584Z,39.38
2022-08-04T05:40:26.944Z,39.16
2022-08-04T05:41:02.577Z,39.11
2022-08-04T05:41:45.194Z,39.46
2022-08-04T05:42:21.194Z,39.41
2022-08-04T05:42:56.889Z,39.41
2022-08-04T05:43:29.790Z,38.89
2022-08-04T05:44:05.387Z,39.50
2022-08-04T05:44:38.370Z,38.98
2022-08-04T05:45:10.776Z,39.24
2022-08-04T05:45:48.416Z,39.05
2022-08-04T05:46:20.871Z,39.55
2022-08-04T05:46:56.203Z,39.43
2022-08-04T05:47:31.543Z,39.75
2022-08-04T05:48:04.788Z,39.38
2022-08-04T05:48:40.787Z,39.60
2022-08-04T05:49:19.366Z,39.21
2022-08-04T05:50:01.738Z,39.22
2022-08-04T05:50:37.918Z,39.42
2022-08-04T05:51:11.156Z,39.36
2022-08-04T05:51:46.758Z,39.40
2022-08-04T05:52:21.915Z,39.45
2022-08-04T05:52:54.453Z,39.38
2022-08-04T05:53:37.458Z,39.33
2022-08-04T05:54:10.515Z,39.16
2022-08-04T05:54:45.533Z,39.33
2022-08-04T05:55:48.686Z,39.62
2022-08-04T05:56:15.510Z,39.38
2022-08-04T05:56:48.512Z,39.24
2022-08-04T05:57:21.196Z,39.28
2022-08-04T05:57:56.994Z,39.04
2022-08-04T05:58:30.713Z,39.54
2022-08-04T05:59:03.863Z,39.38
2022-08-04T05:59:42.907Z,39.72
2022-08-04T06:00:39.032Z,39.72
2022-08-04T06:01:14.103Z,39.38
2022-08-04T06:01:55.606Z,39.48
2022-08-04T06:02:30.967Z,39.44
2022-08-04T06:03:06.838Z,39.12
2022-08-04T06:03:40.176Z,39.53
2022-08-04T06:04:15.966Z,39.53
2022-08-04T06:04:51.035Z,39.38
2022-08-04T06:05:26.739Z,39.48
2022-08-04T06:05:59.387Z,39.35
2022-08-04T06:06:32.255Z,39.41
2022-08-04T06:07:11.360Z,39.67
2022-08-04T06:08:11.826Z,39.62
2022-08-04T06:08:38.822Z,39.68
2022-08-04T06:09:11.959Z,39.79
2022-08-04T06:09:44.739Z,39.74
2022-08-04T06:10:23.085Z,39.96
2022-08-04T06:11:06.571Z,39.96
2022-08-04T06:12:00.773Z,39.89
2022-08-04T06:12:40.478Z,39.89
2022-08-04T06:13:49.608Z,39.50
2022-08-04T06:14:12.527Z,39.70
2022-08-04T06:14:46.627Z,40.01
2022-08-04T06:15:20.896Z,39.93
2022-08-04T06:16:01.609Z,39.93
2022-08-04T06:16:37.960Z,39.56
2022-08-04T06:18:33.048Z,39.66
2022-08-04T06:18:34.077Z,39.83
2022-08-04T06:19:59.347Z,39.84
2022-08-04T06:20:19.548Z,40.07
2022-08-04T06:20:59.337Z,39.93
2022-08-04T06:21:33.693Z,39.74
2022-08-04T06:22:11.296Z,40.01
2022-08-04T06:22:49.135Z,40.12
2022-08-04T06:23:23.937Z,39.96
2022-08-04T06:24:02.362Z,40.16
2022-08-04T06:24:41.009Z,40.24
2022-08-04T06:25:18.011Z,40.00
2022-08-04T06:25:52.243Z,39.98
2022-08-04T06:26:28.410Z,40.09
2022-08-04T06:27:01.496Z,40.08
2022-08-04T06:27:33.928Z,40.21
2022-08-04T06:28:09.821Z,40.02
2022-08-04T06:28:42.306Z,40.04
2022-08-04T06:29:20.751Z,39.94
2022-08-04T06:29:56.217Z,40.19
2022-08-04T06:30:29.411Z,39.77
2022-08-04T06:32:28.202Z,40.18
2022-08-04T06:32:30.239Z,40.12
2022-08-04T06:33:03.814Z,39.94
2022-08-04T06:33:54.322Z,39.96
2022-08-04T06:34:28.047Z,40.13
2022-08-04T06:35:04.875Z,40.11
2022-08-04T06:35:37.330Z,40.33
2022-08-04T06:36:14.250Z,40.25
2022-08-04T06:36:48.085Z,40.16
2022-08-04T06:37:42.674Z,40.19
2022-08-04T06:38:21.306Z,40.50
2022-08-04T06:38:59.197Z,39.94
2022-08-04T06:39:32.085Z,40.41
2022-08-04T06:40:31.318Z,40.30
2022-08-04T06:41:03.824Z,40.25
2022-08-04T06:41:55.257Z,39.98
2022-08-04T06:42:31.935Z,40.22
2022-08-04T06:43:09.131Z,40.24
2022-08-04T06:43:42.908Z,40.31
2022-08-04T06:44:16.556Z,40.46
2022-08-04T06:44:53.189Z,40.57
2022-08-04T06:45:26.036Z,39.96
2022-08-04T06:46:03.047Z,39.93
2022-08-04T06:46:37.561Z,40.16
2022-08-04T06:47:18.700Z,40.26
2022-08-04T06:47:51.631Z,40.50
2022-08-04T06:48:33.321Z,40.19
2022-08-04T06:49:06.670Z,40.18
2022-08-04T06:49:55.078Z,40.14
2022-08-04T06:51:25.592Z,40.47
2022-08-04T06:51:38.029Z,40.44
2022-08-04T06:52:21.654Z,40.50
2022-08-04T06:52:56.682Z,40.42
2022-08-04T06:53:31.766Z,40.29
2022-08-04T06:54:04.360Z,40.24
2022-08-04T06:54:36.750Z,40.45
2022-08-04T06:55:13.552Z,40.52
2022-08-04T06:55:47.639Z,40.62
2022-08-04T06:56:20.551Z,40.50
2022-08-04T06:56:56.556Z,40.54
2022-08-04T06:57:30.840Z,40.50
2022-08-04T06:58:03.785Z,40.61
2022-08-04T06:58:39.303Z,40.89
2022-08-04T06:59:12.981Z,40.72
2022-08-04T06:59:45.771Z,40.53
2022-08-04T07:00:21.026Z,40.19
2022-08-04T07:00:54.783Z,40.57
2022-08-04T07:01:28.688Z,40.47
2022-08-04T07:02:04.413Z,40.61
2022-08-04T07:02:40.498Z,40.33
2022-08-04T07:03:13.120Z,40.62
2022-08-04T07:03:50.620Z,40.50
2022-08-04T07:04:23.482Z,40.69
2022-08-04T07:04:56.187Z,40.79
2022-08-04T07:05:31.843Z,40.72
2022-08-04T07:06:06.069Z,40.62
2022-08-04T07:06:49.261Z,40.77
2022-08-04T07:07:33.927Z,40.98
2022-08-04T07:08:16.553Z,40.96
2022-08-04T07:08:49.875Z,40.84
2022-08-04T07:09:22.379Z,40.69
2022-08-04T07:09:57.395Z,40.48
2022-08-04T07:10:31.056Z,40.69
2022-08-04T07:11:06.695Z,40.81
2022-08-04T07:11:44.623Z,40.76
2022-08-04T07:12:21.733Z,40.76
2022-08-04T07:12:54.370Z,40.96
2022-08-04T07:13:30.423Z,40.72
2022-08-04T07:14:03.737Z,40.80
2022-08-04T07:14:36.681Z,40.81
2022-08-04T07:15:14.356Z,41.10
2022-08-04T07:15:48.132Z,41.00
2022-08-04T07:16:30.569Z,41.04
2022-08-04T07:17:08.102Z,40.86
2022-08-04T07:17:42.331Z,40.88
2022-08-04T07:18:14.867Z,40.58
2022-08-04T07:18:50.043Z,40.88
2022-08-04T07:19:22.403Z,40.93
2022-08-04T07:19:55.039Z,40.79
2022-08-04T07:20:34.508Z,41.04
2022-08-04T07:21:08.506Z,40.87
2022-08-04T07:21:41.065Z,40.76
2022-08-04T07:22:36.242Z,40.49
2022-08-04T07:23:09.126Z,40.56
2022-08-04T07:23:48.574Z,40.59
2022-08-04T07:24:21.007Z,40.69
2022-08-04T07:24:58.305Z,41.10
2022-08-04T07:25:57.257Z,40.99
2022-08-04T07:26:30.768Z,40.76
2022-08-04T07:27:04.037Z,41.07
2022-08-04T07:27:48.202Z,40.56
2022-08-04T07:28:22.603Z,40.88
2022-08-04T07:28:59.711Z,41.24
2022-08-04T07:29:32.281Z,41.25
2022-08-04T07:30:06.582Z,40.92
2022-08-04T07:30:42.839Z,40.91
2022-08-04T07:31:34.492Z,40.69
2022-08-04T07:32:11.190Z,40.82
2022-08-04T07:32:46.286Z,40.80
2022-08-04T07:33:22.105Z,40.97
2022-08-04T07:34:17.208Z,40.93
2022-08-04T07:34:52.630Z,41.09
2022-08-04T07:36:05.228Z,41.01
2022-08-04T07:36:21.434Z,41.20
2022-08-04T07:37:01.747Z,41.31
2022-08-04T07:37:40.028Z,41.00
2022-08-04T07:38:13.351Z,41.00
2022-08-04T07:38:53.956Z,41.00
2022-08-04T07:39:31.528Z,41.12
2022-08-04T07:40:22.996Z,41.04
2022-08-04T07:40:55.938Z,41.10
2022-08-04T07:41:38.298Z,41.05
2022-08-04T07:42:10.922Z,41.09
2022-08-04T07:42:46.961Z,41.18
2022-08-04T07:43:19.555Z,41.31
2022-08-04T07:43:52.288Z,40.87
2022-08-04T07:44:27.843Z,41.13
2022-08-04T07:45:00.891Z,41.29
2022-08-04T07:45:33.513Z,41.37
2022-08-04T07:46:08.571Z,41.04
2022-08-04T07:46:41.063Z,40.96
2022-08-04T07:47:16.466Z,41.08
2022-08-04T07:48:04.816Z,41.25
2022-08-04T07:48:38.901Z,40.78
2022-08-04T07:49:13.944Z,41.13
2022-08-04T07:50:08.180Z,41.15
2022-08-04T07:50:45.983Z,41.29
2022-08-04T07:51:18.592Z,41.31
2022-08-04T07:51:51.072Z,41.46
2022-08-04T07:52:26.929Z,41.27
2022-08-04T07:53:53.325Z,41.50
2022-08-04T07:53:57.845Z,41.27
2022-08-04T07:54:30.521Z,41.00
2022-08-04T07:55:03.223Z,41.49
2022-08-04T07:55:38.260Z,41.48
2022-08-04T07:56:11.502Z,41.36
2022-08-04T07:56:44.253Z,41.42
2022-08-04T07:57:39.821Z,41.41
2022-08-04T07:58:13.275Z,40.88
2022-08-04T07:58:48.523Z,41.13
2022-08-04T07:59:22.908Z,41.25
2022-08-04T07:59:55.315Z,41.09
2022-08-04T08:00:30.404Z,40.96
2022-08-04T08:01:02.799Z,41.25
2022-08-04T08:01:36.384Z,40.98
2022-08-04T08:02:11.786Z,41.15
2022-08-04T08:02:46.425Z,41.36
2022-08-04T08:03:21.910Z,41.49
2022-08-04T08:03:59.418Z,41.57
2022-08-04T08:04:32.529Z,41.20
2022-08-04T08:05:08.275Z,41.52
2022-08-04T08:05:54.716Z,41.47
2022-08-04T08:06:43.184Z,41.33
2022-08-04T08:07:15.918Z,41.35
2022-08-04T08:07:54.562Z,41.64
2022-08-04T08:08:27.430Z,41.76
2022-08-04T08:09:13.510Z,41.54
2022-08-04T08:09:46.848Z,41.56
2022-08-04T08:10:19.594Z,41.52
2022-08-04T08:10:55.156Z,41.71
2022-08-04T08:12:37.143Z,41.99
2022-08-04T08:12:37.805Z,41.77
2022-08-04T08:13:16.146Z,42.15
2022-08-04T08:13:51.397Z,42.25
2022-08-04T08:14:24.000Z,41.85
2022-08-04T08:14:58.151Z,41.75
2022-08-04T08:15:33.510Z,42.09
2022-08-04T08:16:06.606Z,42.28
2022-08-04T08:16:39.186Z,41.71
2022-08-04T08:17:14.269Z,42.04
2022-08-04T08:17:58.731Z,42.09
2022-08-04T08:18:35.408Z,41.88
2022-08-04T08:19:07.940Z,41.82
2022-08-04T08:19:40.482Z,41.99
2022-08-04T08:20:15.712Z,41.87
2022-08-04T08:21:02.805Z,41.63
2022-08-04T08:21:35.462Z,42.02
2022-08-04T08:22:30.700Z,41.89
2022-08-04T08:23:03.765Z,42.24
2022-08-04T08:23:39.024Z,41.84
2022-08-04T08:24:14.197Z,42.02
2022-08-04T08:24:49.278Z,42.21
2022-08-04T08:25:21.678Z,42.24
2022-08-04T08:25:57.510Z,42.02
2022-08-04T08:26:31.304Z,42.25
2022-08-04T08:27:07.441Z,42.35
2022-08-04T08:27:39.832Z,42.24
2022-08-04T08:28:31.315Z,41.90
2022-08-04T08:29:04.147Z,41.92
2022-08-04T08:29:39.370Z,41.90
2022-08-04T08:30:12.827Z,41.61
2022-08-04T08:30:52.898Z,41.66
2022-08-04T08:31:57.338Z,41.54
2022-08-04T08:32:20.602Z,41.88
2022-08-04T08:32:55.555Z,41.79
2022-08-04T08:33:27.974Z,41.59
2022-08-04T08:34:03.035Z,41.60
2022-08-04T08:34:35.544Z,41.80
2022-08-04T08:35:11.451Z,42.21
2022-08-04T08:35:53.776Z,42.04
2022-08-04T08:36:36.059Z,42.24
2022-08-04T08:37:13.834Z,42.14
2022-08-04T08:37:51.717Z,42.00
2022-08-04T08:38:29.776Z,42.27
2022-08-04T08:39:08.431Z,42.50
2022-08-04T08:39:50.698Z,42.14
2022-08-04T08:40:41.134Z,41.88
2022-08-04T08:41:43.540Z,42.01
2022-08-04T08:42:32.841Z,42.33
2022-08-04T08:44:05.122Z,42.02
2022-08-04T08:45:10.283Z,42.19
2022-08-04T08:46:13.494Z,41.79
2022-08-04T08:46:58.684Z,41.66
2022-08-04T08:48:05.078Z,42.28
2022-08-04T08:49:03.424Z,42.21
2022-08-04T08:50:01.759Z,42.14
2022-08-04T08:51:00.612Z,41.90
2022-08-04T08:51:53.058Z,41.88
2022-08-04T08:52:56.333Z,41.75
2022-08-04T08:53:37.211Z,41.92
2022-08-04T08:54:45.146Z,41.88
2022-08-04T08:55:31.634Z,41.94
2022-08-04T08:56:16.099Z,41.75
2022-08-04T08:56:57.990Z,41.87
2022-08-04T08:57:59.348Z,41.78
2022-08-04T08:58:46.378Z,41.76
2022-08-04T08:59:41.066Z,41.50
2022-08-04T09:00:18.958Z,41.60
2022-08-04T09:00:58.514Z,41.71
2022-08-04T09:01:43.438Z,41.61
2022-08-04T09:02:37.558Z,41.88
2022-08-04T09:03:40.387Z,41.73
2022-08-04T09:04:36.216Z,41.70
2022-08-04T09:05:24.690Z,41.78
2022-08-04T09:06:29.572Z,41.80
2022-08-04T09:07:37.437Z,41.71
2022-08-04T09:08:22.799Z,41.88
2022-08-04T09:09:07.034Z,41.97